Time,TemperatureF,DewpointF,PressureIn,WindDirection,WindDirectionDegrees,WindSpeedMPH,WindSpeedGustMPH,Humidity,HourlyPrecipIn,Conditions,Clouds,dailyrainin,SoftwareType,DateUTC
2013-05-02 00:10:00,64.4,54.4,29.94,ENE,67,0.0,-999.0,70,-99.99,,,0.00,Acu-Link.com,2013-05-02 04:10:00,
2013-05-02 00:25:00,64.2,53.8,29.94,WSW,247,0.0,-999.0,69,-99.99,,,0.00,Acu-Link.com,2013-05-02 04:25:00,
2013-05-02 00:41:00,64.0,53.6,29.94,ESE,112,1.7,-999.0,69,-99.99,,,0.00,Acu-Link.com,2013-05-02 04:41:00,
2013-05-02 00:56:00,63.1,53.2,29.94,NNW,337,0.0,-999.0,70,-99.99,,,0.00,Acu-Link.com,2013-05-02 04:56:00,
2013-05-02 01:11:00,63.1,53.2,29.94,ESE,112,1.7,-999.0,70,-99.99,,,0.00,Acu-Link.com,2013-05-02 05:11:00,
2013-05-02 01:27:00,61.9,52.8,29.94,ESE,112,0.0,-999.0,72,-99.99,,,0.00,Acu-Link.com,2013-05-02 05:27:00,
2013-05-02 01:42:00,61.5,52.4,29.94,South,180,2.7,-999.0,72,-99.99,,,0.00,Acu-Link.com,2013-05-02 05:42:00,
2013-05-02 01:57:00,61.9,52.4,29.94,South,180,2.7,-999.0,71,-99.99,,,0.00,Acu-Link.com,2013-05-02 05:57:00,
2013-05-02 02:12:00,61.3,51.8,29.93,SSE,157,0.0,-999.0,71,-99.99,,,0.00,Acu-Link.com,2013-05-02 06:12:00,
2013-05-02 02:28:00,60.6,51.5,29.93,NNE,22,0.0,-999.0,72,-99.99,,,0.00,Acu-Link.com,2013-05-02 06:28:00,
2013-05-02 02:43:00,59.5,51.2,29.93,ESE,112,0.0,-999.0,74,-99.99,,,0.00,Acu-Link.com,2013-05-02 06:43:00,
2013-05-02 02:58:00,58.5,51.0,29.93,ESE,112,0.0,-999.0,76,-99.99,,,0.00,Acu-Link.com,2013-05-02 06:58:00,
2013-05-02 03:14:00,57.7,50.5,29.92,ESE,112,0.0,-999.0,77,-99.99,,,0.00,Acu-Link.com,2013-05-02 07:14:00,
2013-05-02 03:29:00,57.0,50.6,29.92,ESE,112,0.0,-999.0,79,-99.99,,,0.00,Acu-Link.com,2013-05-02 07:29:00,
2013-05-02 03:44:00,56.5,50.7,29.93,ESE,112,0.0,-999.0,81,-99.99,,,0.00,Acu-Link.com,2013-05-02 07:44:00,
2013-05-02 04:00:00,55.8,50.4,29.93,ESE,112,0.0,-999.0,82,-99.99,,,0.00,Acu-Link.com,2013-05-02 08:00:00,
2013-05-02 04:15:00,55.4,50.3,29.93,ESE,112,0.0,-999.0,83,-99.99,,,0.00,Acu-Link.com,2013-05-02 08:15:00,
2013-05-02 04:30:00,55.0,50.6,29.93,ESE,112,0.0,-999.0,85,-99.99,,,0.00,Acu-Link.com,2013-05-02 08:30:00,
2013-05-02 04:45:00,54.7,50.6,29.93,ESE,112,0.0,-999.0,86,-99.99,,,0.00,Acu-Link.com,2013-05-02 08:45:00,
2013-05-02 05:01:00,54.3,50.2,29.94,ESE,112,0.0,-999.0,86,-99.99,,,0.00,Acu-Link.com,2013-05-02 09:01:00,
2013-05-02 05:16:00,54.0,50.5,29.94,ESE,112,0.0,-999.0,88,-99.99,,,0.00,Acu-Link.com,2013-05-02 09:16:00,
2013-05-02 05:31:00,53.4,49.9,29.94,ESE,112,0.0,-999.0,88,-99.99,,,0.00,Acu-Link.com,2013-05-02 09:31:00,
2013-05-02 05:46:00,53.1,49.9,29.94,ESE,112,0.0,-999.0,89,-99.99,,,0.00,Acu-Link.com,2013-05-02 09:46:00,
2013-05-02 06:02:00,52.5,49.7,29.94,ESE,112,0.0,-999.0,90,-99.99,,,0.00,Acu-Link.com,2013-05-02 10:02:00,
2013-05-02 06:17:00,52.2,49.7,29.94,ESE,112,0.0,-999.0,91,-99.99,,,0.00,Acu-Link.com,2013-05-02 10:17:00,
2013-05-02 06:32:00,52.0,49.7,29.95,ESE,112,0.0,-999.0,92,-99.99,,,0.00,Acu-Link.com,2013-05-02 10:32:00,
2013-05-02 06:48:00,51.8,49.8,29.94,ESE,112,0.0,-999.0,93,-99.99,,,0.00,Acu-Link.com,2013-05-02 10:48:00,
2013-05-02 07:03:00,52.7,50.4,29.94,South,180,0.0,-999.0,92,-99.99,,,0.00,Acu-Link.com,2013-05-02 11:03:00,
2013-05-02 07:18:00,54.0,50.8,29.95,SE,135,0.0,-999.0,89,-99.99,,,0.00,Acu-Link.com,2013-05-02 11:18:00,
2013-05-02 07:33:00,55.9,51.5,29.95,WSW,247,0.0,-999.0,85,-99.99,,,0.00,Acu-Link.com,2013-05-02 11:33:00,
2013-05-02 07:49:00,57.4,51.6,29.96,NE,45,1.1,-999.0,81,-99.99,,,0.00,Acu-Link.com,2013-05-02 11:49:00,
2013-05-02 08:04:00,58.5,52.0,29.96,South,180,3.2,-999.0,79,-99.99,,,0.00,Acu-Link.com,2013-05-02 12:04:00,
2013-05-02 08:19:00,59.4,51.8,29.97,South,180,3.2,-999.0,76,-99.99,,,0.00,Acu-Link.com,2013-05-02 12:19:00,
2013-05-02 08:34:00,60.3,52.3,29.97,South,180,3.2,-999.0,75,-99.99,,,0.00,Acu-Link.com,2013-05-02 12:34:00,
2013-05-02 08:49:00,61.5,52.8,29.98,South,180,2.7,-999.0,73,-99.99,,,0.00,Acu-Link.com,2013-05-02 12:49:00,
2013-05-02 09:05:00,62.2,53.1,29.99,SE,135,2.7,-999.0,72,-99.99,,,0.00,Acu-Link.com,2013-05-02 13:05:00,
2013-05-02 09:20:00,63.3,53.7,29.98,West,270,2.7,-999.0,71,-99.99,,,0.00,Acu-Link.com,2013-05-02 13:20:00,
2013-05-02 09:35:00,64.0,53.2,29.99,SSE,157,4.7,-999.0,68,-99.99,,,0.00,Acu-Link.com,2013-05-02 13:35:00,
2013-05-02 09:50:00,64.9,54.1,29.99,SSE,157,2.2,-999.0,68,-99.99,,,0.00,Acu-Link.com,2013-05-02 13:50:00,
2013-05-02 10:06:00,64.6,53.8,29.99,West,270,3.7,-999.0,68,-99.99,,,0.00,Acu-Link.com,2013-05-02 14:06:00,
2013-05-02 10:21:00,64.6,53.0,29.99,SE,135,4.7,-999.0,66,-99.99,,,0.00,Acu-Link.com,2013-05-02 14:21:00,
2013-05-02 10:36:00,64.6,53.4,29.98,SE,135,3.7,-999.0,67,-99.99,,,0.00,Acu-Link.com,2013-05-02 14:36:00,
2013-05-02 10:51:00,65.1,53.5,29.99,SSE,157,4.7,-999.0,66,-99.99,,,0.00,Acu-Link.com,2013-05-02 14:51:00,
2013-05-02 11:06:00,66.2,54.5,29.99,South,180,5.8,-999.0,66,-99.99,,,0.00,Acu-Link.com,2013-05-02 15:06:00,
2013-05-02 11:22:00,67.1,54.5,29.99,SSE,157,5.3,-999.0,64,-99.99,,,0.00,Acu-Link.com,2013-05-02 15:22:00,
2013-05-02 11:37:00,69.1,56.8,29.98,West,270,1.7,-999.0,65,-99.99,,,0.00,Acu-Link.com,2013-05-02 15:37:00,
2013-05-02 11:52:00,70.0,55.9,29.98,South,180,4.7,-999.0,61,-99.99,,,0.00,Acu-Link.com,2013-05-02 15:52:00,
2013-05-02 12:07:00,71.6,57.0,29.98,SSE,157,5.8,-999.0,60,-99.99,,,0.00,Acu-Link.com,2013-05-02 16:07:00,
2013-05-02 12:23:00,70.3,56.2,29.97,SSE,157,4.2,-999.0,61,-99.99,,,0.00,Acu-Link.com,2013-05-02 16:23:00,
2013-05-02 12:38:00,70.5,55.9,29.97,East,90,2.2,-999.0,60,-99.99,,,0.00,Acu-Link.com,2013-05-02 16:38:00,
2013-05-02 12:53:00,70.3,56.7,29.97,SSE,157,3.2,-999.0,62,-99.99,,,0.00,Acu-Link.com,2013-05-02 16:53:00,
2013-05-02 13:08:00,72.5,56.4,29.96,SSE,157,3.7,-999.0,57,-99.99,,,0.00,Acu-Link.com,2013-05-02 17:08:00,
2013-05-02 13:24:00,72.9,55.3,29.96,SSW,202,3.7,-999.0,54,-99.99,,,0.00,Acu-Link.com,2013-05-02 17:24:00,
2013-05-02 13:39:00,73.9,55.2,29.95,SSE,157,6.3,-999.0,52,-99.99,,,0.00,Acu-Link.com,2013-05-02 17:39:00,
2013-05-02 13:54:00,74.1,57.4,29.95,SSW,202,3.2,-999.0,56,-99.99,,,0.00,Acu-Link.com,2013-05-02 17:54:00,
2013-05-02 14:09:00,73.0,55.4,29.95,SE,135,3.7,-999.0,54,-99.99,,,0.00,Acu-Link.com,2013-05-02 18:09:00,
2013-05-02 14:24:00,73.8,56.1,29.95,SE,135,4.7,-999.0,54,-99.99,,,0.00,Acu-Link.com,2013-05-02 18:24:00,
2013-05-02 14:40:00,73.0,55.9,29.95,South,180,3.7,-999.0,55,-99.99,,,0.00,Acu-Link.com,2013-05-02 18:40:00,
2013-05-02 14:55:00,73.8,56.1,29.94,SSE,157,7.3,-999.0,54,-99.99,,,0.00,Acu-Link.com,2013-05-02 18:55:00,
2013-05-02 15:10:00,73.8,56.1,29.94,South,180,5.3,-999.0,54,-99.99,,,0.00,Acu-Link.com,2013-05-02 19:10:00,
2013-05-02 15:25:00,75.0,56.7,29.93,South,180,4.7,-999.0,53,-99.99,,,0.00,Acu-Link.com,2013-05-02 19:25:00,
2013-05-02 15:40:00,74.5,55.2,29.93,ESE,112,3.7,-999.0,51,-99.99,,,0.00,Acu-Link.com,2013-05-02 19:40:00,
2013-05-02 15:56:00,74.3,55.5,29.92,SSW,202,5.3,-999.0,52,-99.99,,,0.00,Acu-Link.com,2013-05-02 19:56:00,
2013-05-02 16:11:00,74.3,54.4,29.92,SW,225,1.7,-999.0,50,-99.99,,,0.00,Acu-Link.com,2013-05-02 20:11:00,
2013-05-02 16:27:00,75.7,54.6,29.91,West,270,2.7,-999.0,48,-99.99,,,0.00,Acu-Link.com,2013-05-02 20:27:00,
2013-05-02 16:42:00,75.7,55.7,29.90,SE,135,4.2,-999.0,50,-99.99,,,0.00,Acu-Link.com,2013-05-02 20:42:00,
2013-05-02 16:57:00,76.5,55.9,29.90,South,180,3.7,-999.0,49,-99.99,,,0.00,Acu-Link.com,2013-05-02 20:57:00,
2013-05-02 17:13:00,75.9,55.4,29.90,SSW,202,2.7,-999.0,49,-99.99,,,0.00,Acu-Link.com,2013-05-02 21:13:00,
2013-05-02 17:28:00,76.8,55.0,29.90,South,180,6.3,-999.0,47,-99.99,,,0.00,Acu-Link.com,2013-05-02 21:28:00,
2013-05-02 17:43:00,75.0,54.5,29.89,South,180,3.2,-999.0,49,-99.99,,,0.00,Acu-Link.com,2013-05-02 21:43:00,
2013-05-02 17:58:00,76.1,55.5,29.89,NNW,337,2.7,-999.0,49,-99.99,,,0.00,Acu-Link.com,2013-05-02 21:58:00,
2013-05-02 18:13:00,75.9,55.4,29.89,ESE,112,3.7,-999.0,49,-99.99,,,0.00,Acu-Link.com,2013-05-02 22:13:00,
2013-05-02 18:28:00,76.6,55.4,29.88,SW,225,3.7,-999.0,48,-99.99,,,0.00,Acu-Link.com,2013-05-02 22:28:00,
2013-05-02 18:44:00,77.0,55.8,29.88,East,90,3.2,-999.0,48,-99.99,,,0.00,Acu-Link.com,2013-05-02 22:44:00,
2013-05-02 18:59:00,75.9,55.9,29.88,SSW,202,1.7,-999.0,50,-99.99,,,0.00,Acu-Link.com,2013-05-02 22:59:00,
2013-05-02 19:14:00,74.3,56.0,29.87,East,90,0.0,-999.0,53,-99.99,,,0.00,Acu-Link.com,2013-05-02 23:14:00,
2013-05-02 19:30:00,72.9,56.8,29.87,ESE,112,0.0,-999.0,57,-99.99,,,0.00,Acu-Link.com,2013-05-02 23:30:00,
2013-05-02 19:45:00,72.0,55.9,29.87,NNE,22,0.0,-999.0,57,-99.99,,,0.00,Acu-Link.com,2013-05-02 23:45:00,
2013-05-02 20:00:00,71.4,54.9,29.87,NE,45,0.0,-999.0,56,-99.99,,,0.00,Acu-Link.com,2013-05-03 00:00:00,
2013-05-02 20:15:00,70.2,54.7,29.87,ESE,112,0.0,-999.0,58,-99.99,,,0.00,Acu-Link.com,2013-05-03 00:15:00,
2013-05-02 20:30:00,69.3,54.3,29.86,ESE,112,0.0,-999.0,59,-99.99,,,0.00,Acu-Link.com,2013-05-03 00:30:00,
2013-05-02 20:45:00,68.2,54.2,29.86,ENE,67,0.0,-999.0,61,-99.99,,,0.00,Acu-Link.com,2013-05-03 00:45:00,
2013-05-02 21:01:00,67.3,54.7,29.87,East,90,2.2,-999.0,64,-99.99,,,0.00,Acu-Link.com,2013-05-03 01:01:00,
2013-05-02 21:16:00,66.7,55.0,29.87,ENE,67,0.0,-999.0,66,-99.99,,,0.00,Acu-Link.com,2013-05-03 01:16:00,
2013-05-02 21:31:00,65.7,54.4,29.87,NE,45,0.0,-999.0,67,-99.99,,,0.00,Acu-Link.com,2013-05-03 01:31:00,
2013-05-02 21:46:00,65.3,54.5,29.88,NE,45,0.0,-999.0,68,-99.99,,,0.00,Acu-Link.com,2013-05-03 01:46:00,
2013-05-02 22:02:00,64.6,54.6,29.88,NW,315,0.0,-999.0,70,-99.99,,,0.00,Acu-Link.com,2013-05-03 02:02:00,
2013-05-02 22:17:00,63.9,54.7,29.88,NNE,22,0.0,-999.0,72,-99.99,,,0.00,Acu-Link.com,2013-05-03 02:17:00,
2013-05-02 22:32:00,63.5,54.3,29.87,North,0,0.0,-999.0,72,-99.99,,,0.00,Acu-Link.com,2013-05-03 02:32:00,
2013-05-02 22:48:00,63.1,53.9,29.87,NE,45,0.0,-999.0,72,-99.99,,,0.00,Acu-Link.com,2013-05-03 02:48:00,
2013-05-02 23:03:00,62.6,54.2,29.86,WNW,292,0.0,-999.0,74,-99.99,,,0.00,Acu-Link.com,2013-05-03 03:03:00,
2013-05-02 23:18:00,62.2,54.5,29.86,NW,315,0.0,-999.0,76,-99.99,,,0.00,Acu-Link.com,2013-05-03 03:18:00,
2013-05-02 23:34:00,61.7,54.1,29.87,NW,315,0.0,-999.0,76,-99.99,,,0.00,Acu-Link.com,2013-05-03 03:34:00,
2013-05-02 23:49:00,61.2,53.9,29.87,NW,315,0.0,-999.0,77,-99.99,,,0.00,Acu-Link.com,2013-05-03 03:49:00,